Time;durP1;ratioP1;P1;durP2;ratioP2;P2;SDS_P1;SDS_P2;PMS_P1;PMS_P2;Temp;Humidity;BMP_temperature;BMP_pressure;BME280_temperature;BME280_humidity;BME280_pressure;Samples;Min_cycle;Max_cycle;Signal;HPM_P1;HPM_P2
2021/07/04 00:00:57;;;;;;;9.43;5.70;;;20.90;99.90;;;;;;4967711;28;20444;-83
2021/07/04 00:03:22;;;;;;;6.97;6.27;;;20.80;99.90;;;;;;4971695;28;20218;-82
2021/07/04 00:05:50;;;;;;;5.87;5.37;;;20.70;99.90;;;;;;4978323;28;20456;-81
2021/07/04 00:08:21;;;;;;;5.93;5.27;;;20.80;99.90;;;;;;4965593;28;20232;-82
2021/07/04 00:10:58;;;;;;;6.37;5.77;;;20.90;99.90;;;;;;4957121;28;21140;-82
2021/07/04 00:13:24;;;;;;;6.27;5.03;;;20.80;99.90;;;;;;4973186;28;20451;-82
2021/07/04 00:15:51;;;;;;;6.90;5.83;;;20.80;99.90;;;;;;4969690;28;21184;-82
2021/07/04 00:18:20;;;;;;;6.50;5.90;;;20.80;99.90;;;;;;4972801;28;20474;-82
2021/07/04 00:20:46;;;;;;;5.80;5.30;;;20.70;99.90;;;;;;4973556;28;20445;-82
2021/07/04 00:23:12;;;;;;;6.40;5.80;;;20.60;99.90;;;;;;4951125;28;20509;-81
2021/07/04 00:25:39;;;;;;;7.30;6.60;;;20.60;99.90;;;;;;4959895;28;20829;-81
2021/07/04 00:28:05;;;;;;;6.00;5.50;;;20.50;99.90;;;;;;4969347;28;20446;-81
2021/07/04 00:30:32;;;;;;;6.70;6.00;;;20.60;99.90;;;;;;4971571;28;21040;-82
2021/07/04 00:32:57;;;;;;;9.10;6.20;;;20.60;99.90;;;;;;4970644;28;20435;-82
2021/07/04 00:35:24;;;;;;;8.37;6.10;;;20.60;99.90;;;;;;4970152;28;20438;-82
2021/07/04 00:37:51;;;;;;;7.10;5.80;;;20.60;99.90;;;;;;4974321;28;20183;-82
2021/07/04 00:40:17;;;;;;;6.53;5.93;;;20.60;99.90;;;;;;4993991;28;20456;-81
2021/07/04 00:42:43;;;;;;;6.43;5.70;;;20.60;99.90;;;;;;4970813;28;20431;-82
2021/07/04 00:45:18;;;;;;;7.53;6.73;;;20.50;99.90;;;;;;4974287;28;20465;-83
2021/07/04 00:47:44;;;;;;;6.07;5.47;;;20.50;99.90;;;;;;4975738;28;20445;-82
2021/07/04 00:50:12;;;;;;;6.87;6.17;;;20.50;99.90;;;;;;4974967;28;20452;-82
2021/07/04 00:52:38;;;;;;;7.10;6.03;;;20.50;99.90;;;;;;4979247;28;20430;-82
2021/07/04 00:55:05;;;;;;;6.13;5.63;;;20.50;99.90;;;;;;4974806;28;20464;-81
2021/07/04 00:57:32;;;;;;;6.50;5.70;;;20.50;99.90;;;;;;4984804;28;20457;-82
2021/07/04 00:59:58;;;;;;;7.97;6.17;;;20.50;99.90;;;;;;4961376;28;20899;-82
2021/07/04 01:02:24;;;;;;;6.50;5.30;;;20.40;99.90;;;;;;4973501;28;20871;-81
2021/07/04 01:04:50;;;;;;;7.00;6.33;;;20.40;99.90;;;;;;4977132;28;20481;-81
2021/07/04 01:07:16;;;;;;;6.30;5.70;;;20.40;99.90;;;;;;4954728;28;20474;-81
2021/07/04 01:09:43;;;;;;;6.73;5.70;;;20.50;99.90;;;;;;4972308;28;20280;-82
2021/07/04 01:12:08;;;;;;;5.67;5.17;;;20.40;99.90;;;;;;4975156;28;20445;-83
2021/07/04 01:14:35;;;;;;;7.17;6.10;;;20.40;99.90;;;;;;4973506;28;20444;-81
2021/07/04 01:17:00;;;;;;;7.77;6.70;;;20.40;99.90;;;;;;4979994;28;20217;-81
2021/07/04 01:19:26;;;;;;;6.73;5.50;;;20.40;99.90;;;;;;4978795;28;21010;-83
2021/07/04 01:21:56;;;;;;;6.43;5.83;;;20.30;99.90;;;;;;4976044;28;20185;-83
2021/07/04 01:24:22;;;;;;;6.77;5.83;;;20.30;99.90;;;;;;4973072;28;20472;-83
2021/07/04 01:26:48;;;;;;;8.03;7.20;;;20.20;99.90;;;;;;4974812;28;20462;-83
2021/07/04 01:29:14;;;;;;;8.53;5.40;;;20.30;99.90;;;;;;4977485;28;20443;-84
2021/07/04 01:31:40;;;;;;;7.97;5.80;;;20.30;99.90;;;;;;4985987;28;20488;-82
2021/07/04 01:34:06;;;;;;;7.90;6.53;;;20.30;99.90;;;;;;4979194;28;20190;-84
2021/07/04 01:36:32;;;;;;;7.30;6.60;;;20.30;99.90;;;;;;4966830;28;21065;-82
2021/07/04 01:38:58;;;;;;;7.33;6.23;;;20.40;99.90;;;;;;4980093;28;20198;-82
2021/07/04 01:41:24;;;;;;;7.50;6.70;;;20.30;99.90;;;;;;4960646;28;20446;-83
2021/07/04 01:43:51;;;;;;;7.90;6.10;;;20.30;99.90;;;;;;4964390;28;20226;-82
2021/07/04 01:46:16;;;;;;;6.63;6.03;;;20.30;99.90;;;;;;4976105;28;20652;-84
2021/07/04 01:48:42;;;;;;;6.97;6.27;;;20.30;99.90;;;;;;4977690;28;20516;-83
2021/07/04 01:51:08;;;;;;;5.90;5.40;;;20.20;99.90;;;;;;4982179;28;20236;-83
2021/07/04 01:53:35;;;;;;;7.03;6.07;;;20.20;99.90;;;;;;4976551;28;20294;-84
2021/07/04 01:56:04;;;;;;;6.90;6.27;;;20.30;99.90;;;;;;4981937;28;20217;-83
2021/07/04 01:58:29;;;;;;;7.10;6.40;;;20.30;99.90;;;;;;4979183;28;20433;-83
2021/07/04 02:00:55;;;;;;;6.10;5.50;;;20.20;99.90;;;;;;4978905;28;20516;-81
2021/07/04 02:03:21;;;;;;;7.13;6.43;;;20.10;99.90;;;;;;4977924;28;20877;-83
2021/07/04 02:05:47;;;;;;;6.43;5.80;;;20.10;99.90;;;;;;4974953;28;20194;-82
2021/07/04 02:08:12;;;;;;;9.70;6.97;;;20.10;99.90;;;;;;4976923;28;20218;-83
2021/07/04 02:10:39;;;;;;;7.30;6.60;;;20.20;99.90;;;;;;4964832;28;20190;-82
2021/07/04 02:13:07;;;;;;;6.63;6.03;;;20.20;99.90;;;;;;4990006;28;20183;-81
2021/07/04 02:15:35;;;;;;;12.10;6.37;;;20.10;99.90;;;;;;4977829;28;20439;-81
2021/07/04 02:18:06;;;;;;;7.00;6.37;;;20.00;99.90;;;;;;4978083;28;20469;-81
2021/07/04 02:20:35;;;;;;;9.70;6.07;;;19.90;99.90;;;;;;4979095;28;20448;-82
2021/07/04 02:23:09;;;;;;;8.00;5.77;;;19.90;99.90;;;;;;4991444;28;20448;-81
2021/07/04 02:25:37;;;;;;;6.60;6.00;;;19.80;99.90;;;;;;4980837;28;20440;-82
2021/07/04 02:28:05;;;;;;;7.00;5.80;;;19.80;99.90;;;;;;4975485;28;20448;-81
2021/07/04 02:30:32;;;;;;;6.50;5.83;;;19.80;99.90;;;;;;4979772;28;21311;-81
2021/07/04 02:33:02;;;;;;;6.63;5.80;;;20.00;99.90;;;;;;4978928;28;20425;-83
2021/07/04 02:35:32;;;;;;;7.23;6.53;;;19.90;99.90;;;;;;4976499;28;20447;-82
2021/07/04 02:37:58;;;;;;;6.57;5.97;;;20.00;99.90;;;;;;4979588;28;20469;-82
2021/07/04 02:40:24;;;;;;;6.73;6.13;;;20.00;99.90;;;;;;4993577;28;20461;-81
2021/07/04 02:42:50;;;;;;;6.73;5.13;;;20.00;99.90;;;;;;4977582;28;21025;-81
2021/07/04 02:45:17;;;;;;;6.70;6.00;;;20.00;99.90;;;;;;4981557;28;20469;-82
2021/07/04 02:47:43;;;;;;;6.90;6.10;;;20.10;99.90;;;;;;4971757;28;20443;-81
2021/07/04 02:50:09;;;;;;;6.17;5.57;;;20.20;99.90;;;;;;4963853;28;20499;-81
2021/07/04 02:52:35;;;;;;;7.20;6.10;;;20.00;99.90;;;;;;4981127;28;20434;-82
2021/07/04 02:55:02;;;;;;;6.73;6.13;;;20.00;99.90;;;;;;4974165;28;20433;-83
2021/07/04 02:57:28;;;;;;;7.17;6.23;;;20.20;99.90;;;;;;4981508;28;20473;-81
2021/07/04 02:59:53;;;;;;;8.57;6.17;;;20.20;99.90;;;;;;4975968;28;20523;-81
2021/07/04 03:02:20;;;;;;;7.83;6.07;;;20.10;99.90;;;;;;4971415;28;20560;-81
2021/07/04 03:04:47;;;;;;;6.07;5.47;;;20.00;99.90;;;;;;4980357;28;20222;-83
2021/07/04 03:07:13;;;;;;;6.40;5.80;;;20.00;99.90;;;;;;4957633;28;20474;-82
2021/07/04 03:09:40;;;;;;;6.93;6.23;;;20.00;99.90;;;;;;4991947;28;20422;-83
2021/07/04 03:12:06;;;;;;;7.23;6.43;;;20.00;99.90;;;;;;4983617;28;20273;-81
2021/07/04 03:14:32;;;;;;;7.77;6.27;;;20.10;99.90;;;;;;4970713;28;20445;-84
2021/07/04 03:16:58;;;;;;;7.87;6.33;;;20.00;99.90;;;;;;4976945;28;20581;-81
2021/07/04 03:19:25;;;;;;;5.93;5.43;;;20.00;99.90;;;;;;4979061;28;20449;-83
2021/07/04 03:21:50;;;;;;;7.83;6.97;;;20.10;99.90;;;;;;4958663;28;20447;-85
2021/07/04 03:24:16;;;;;;;7.77;6.27;;;20.10;99.90;;;;;;4978305;28;20470;-82
2021/07/04 03:26:42;;;;;;;6.73;6.03;;;20.10;99.90;;;;;;4973663;28;20215;-82
2021/07/04 03:29:07;;;;;;;6.90;6.20;;;20.20;99.90;;;;;;4973869;28;20189;-81
2021/07/04 03:31:33;;;;;;;6.93;5.73;;;20.10;99.90;;;;;;4981715;28;20276;-83
2021/07/04 03:33:59;;;;;;;7.27;6.57;;;20.10;99.90;;;;;;4974214;28;20306;-83
2021/07/04 03:36:24;;;;;;;9.20;7.20;;;20.20;99.90;;;;;;4975083;28;20218;-84
2021/07/04 03:38:50;;;;;;;7.90;7.10;;;20.20;99.90;;;;;;4989326;28;20197;-82
2021/07/04 03:41:16;;;;;;;7.30;6.60;;;20.20;99.90;;;;;;4955201;28;20194;-83
2021/07/04 03:43:41;;;;;;;8.00;7.30;;;20.20;99.90;;;;;;4976846;28;20210;-82
2021/07/04 03:46:07;;;;;;;6.93;6.10;;;20.30;99.90;;;;;;4974336;28;20835;-83
2021/07/04 03:48:33;;;;;;;8.57;7.47;;;20.30;99.90;;;;;;4976265;28;20206;-82
2021/07/04 03:51:00;;;;;;;7.50;6.67;;;20.30;99.90;;;;;;4976347;28;20174;-83
2021/07/04 03:53:26;;;;;;;7.27;6.57;;;20.20;99.90;;;;;;4960242;28;20446;-82
2021/07/04 03:55:52;;;;;;;7.70;7.00;;;20.20;99.90;;;;;;4976354;28;20480;-82
2021/07/04 03:58:21;;;;;;;7.17;6.57;;;20.20;99.90;;;;;;4978806;28;20714;-82
2021/07/04 04:00:47;;;;;;;7.73;6.97;;;20.30;99.90;;;;;;4984243;28;20195;-82
2021/07/04 04:03:12;;;;;;;6.33;5.73;;;20.30;99.90;;;;;;4986558;28;20434;-82
2021/07/04 04:05:38;;;;;;;7.20;6.50;;;20.30;99.90;;;;;;4961295;28;20207;-82
2021/07/04 04:08:06;;;;;;;7.63;6.73;;;20.30;99.90;;;;;;4978826;28;20255;-82
2021/07/04 04:10:32;;;;;;;7.63;6.93;;;20.30;99.90;;;;;;4982571;28;20292;-82
2021/07/04 04:12:58;;;;;;;7.10;6.40;;;20.30;99.90;;;;;;4986687;28;20434;-81
2021/07/04 04:15:24;;;;;;;7.03;6.33;;;20.30;99.90;;;;;;4984126;28;21211;-82
2021/07/04 04:17:50;;;;;;;6.83;6.23;;;20.20;99.90;;;;;;4961996;28;20190;-82
2021/07/04 04:20:15;;;;;;;7.73;6.60;;;20.20;99.90;;;;;;4995298;23;20201;-61
2021/07/04 04:22:41;;;;;;;7.43;6.20;;;20.30;99.90;;;;;;5037054;22;21543;-62
2021/07/04 04:25:27;;;;;;;7.33;6.60;;;20.20;99.90;;;;;;5050794;23;20224;-62
2021/07/04 04:27:52;;;;;;;7.70;5.80;;;20.30;99.90;;;;;;5047040;23;20224;-84
2021/07/04 04:30:18;;;;;;;6.30;5.70;;;20.40;99.90;;;;;;4994642;28;20466;-79
2021/07/04 04:32:44;;;;;;;7.10;6.10;;;20.40;99.90;;;;;;4993831;28;20756;-82
2021/07/04 04:35:10;;;;;;;7.00;6.40;;;20.30;99.90;;;;;;4996451;28;20185;-82
2021/07/04 04:37:37;;;;;;;7.33;6.63;;;20.10;99.90;;;;;;4984177;28;20292;-82
2021/07/04 04:40:04;;;;;;;6.50;5.90;;;20.20;99.90;;;;;;5022628;28;20484;-82
2021/07/04 04:42:30;;;;;;;6.50;5.90;;;20.20;99.90;;;;;;5016641;28;20460;-81
2021/07/04 04:44:56;;;;;;;7.00;6.30;;;20.20;99.90;;;;;;5018763;28;20492;-83
2021/07/04 04:47:21;;;;;;;6.87;6.17;;;20.20;99.90;;;;;;5020753;28;20347;-81
2021/07/04 04:49:47;;;;;;;7.63;5.93;;;20.20;99.90;;;;;;5005157;28;20217;-78
2021/07/04 04:52:12;;;;;;;8.80;6.60;;;20.10;99.90;;;;;;5013142;28;20185;-83
2021/07/04 04:54:38;;;;;;;10.23;7.50;;;20.10;99.90;;;;;;5017033;28;20192;-84
2021/07/04 04:57:06;;;;;;;7.27;6.50;;;20.10;99.90;;;;;;4984502;28;20201;-81
2021/07/04 04:59:37;;;;;;;8.13;7.33;;;20.20;99.90;;;;;;4980823;28;20336;-79
2021/07/04 05:02:04;;;;;;;6.47;5.87;;;20.20;99.90;;;;;;4999187;28;20444;-82
2021/07/04 05:04:29;;;;;;;7.00;6.30;;;20.30;99.90;;;;;;5022270;28;20468;-83
2021/07/04 05:06:55;;;;;;;6.97;6.33;;;20.30;99.90;;;;;;4998209;28;20579;-84
2021/07/04 05:09:21;;;;;;;6.50;5.90;;;20.30;99.90;;;;;;4999008;28;20256;-82
2021/07/04 05:11:48;;;;;;;6.70;6.10;;;20.40;99.90;;;;;;5021732;28;20201;-83
2021/07/04 05:14:14;;;;;;;8.30;7.50;;;20.50;99.90;;;;;;5021390;28;20444;-82
2021/07/04 05:16:40;;;;;;;9.23;7.20;;;20.40;99.90;;;;;;5022891;28;20820;-79
2021/07/04 05:19:06;;;;;;;8.03;6.70;;;20.60;99.90;;;;;;4980131;28;20194;-81
2021/07/04 05:21:33;;;;;;;7.73;7.07;;;20.60;99.90;;;;;;5015637;28;20460;-82
2021/07/04 05:24:00;;;;;;;9.00;6.97;;;20.40;99.90;;;;;;5012375;28;20209;-85
2021/07/04 05:26:26;;;;;;;6.90;6.30;;;20.40;99.90;;;;;;5013205;28;20502;-80
2021/07/04 05:28:51;;;;;;;7.30;6.60;;;20.50;99.90;;;;;;5011481;28;20432;-76
2021/07/04 05:31:17;;;;;;;10.57;7.80;;;20.50;99.90;;;;;;5013635;28;20209;-85
2021/07/04 05:33:43;;;;;;;7.23;6.53;;;20.60;99.90;;;;;;4994839;28;20249;-84
2021/07/04 05:36:08;;;;;;;7.17;6.47;;;20.60;99.90;;;;;;4992328;28;20320;-84
2021/07/04 05:38:36;;;;;;;10.10;7.23;;;20.70;99.90;;;;;;5007296;28;20741;-84
2021/07/04 05:41:02;;;;;;;7.20;6.50;;;20.80;99.90;;;;;;5020660;28;20340;-83
2021/07/04 05:43:28;;;;;;;6.80;6.20;;;20.90;99.90;;;;;;4995173;28;20574;-81
2021/07/04 05:45:54;;;;;;;10.13;6.73;;;20.90;99.90;;;;;;4999838;28;20486;-82
2021/07/04 05:48:20;;;;;;;7.90;7.20;;;21.00;99.90;;;;;;5014156;28;20240;-83
2021/07/04 05:50:48;;;;;;;7.63;6.83;;;21.10;99.90;;;;;;4980389;28;20735;-82
2021/07/04 05:53:15;;;;;;;6.67;6.07;;;21.20;99.90;;;;;;4999593;28;20185;-81
2021/07/04 05:55:41;;;;;;;7.87;7.07;;;21.20;99.90;;;;;;4995226;28;20983;-80
2021/07/04 05:58:07;;;;;;;7.63;6.43;;;21.10;99.90;;;;;;5014597;28;20432;-83
2021/07/04 06:00:32;;;;;;;7.30;6.60;;;21.00;99.90;;;;;;5012982;28;20632;-81
2021/07/04 06:02:58;;;;;;;7.13;6.43;;;21.10;99.90;;;;;;4967890;28;20185;-82
2021/07/04 06:05:25;;;;;;;8.67;6.87;;;21.20;99.90;;;;;;4967706;28;20217;-81
2021/07/04 06:07:50;;;;;;;6.93;5.87;;;21.30;99.90;;;;;;5013563;28;20232;-82
2021/07/04 06:10:16;;;;;;;9.37;6.90;;;21.40;99.90;;;;;;5012482;28;21213;-84
2021/07/04 06:12:42;;;;;;;7.30;6.40;;;21.40;99.90;;;;;;4981180;28;20211;-84
2021/07/04 06:15:08;;;;;;;8.20;6.50;;;21.30;99.90;;;;;;4993925;28;20220;-83
2021/07/04 06:17:34;;;;;;;9.63;7.67;;;21.30;99.90;;;;;;5010851;28;21027;-83
2021/07/04 06:20:00;;;;;;;7.37;6.67;;;21.40;99.90;;;;;;4993973;28;20592;-82
2021/07/04 06:22:26;;;;;;;8.10;7.30;;;21.40;99.90;;;;;;4991995;28;20452;-86
2021/07/04 06:24:52;;;;;;;7.80;7.00;;;21.50;99.90;;;;;;5009871;28;20479;-80
2021/07/04 06:27:18;;;;;;;7.40;6.60;;;21.60;99.90;;;;;;4978697;28;20201;-82
2021/07/04 06:29:43;;;;;;;7.43;6.67;;;21.70;99.90;;;;;;5014148;28;20284;-80
2021/07/04 06:32:09;;;;;;;7.43;6.73;;;21.80;99.90;;;;;;4997160;28;20296;-82
2021/07/04 06:34:35;;;;;;;6.90;6.20;;;21.80;99.90;;;;;;5011022;28;20201;-82
2021/07/04 06:37:01;;;;;;;6.90;6.30;;;21.70;99.90;;;;;;5012469;28;20441;-80
2021/07/04 06:39:26;;;;;;;7.50;6.80;;;21.80;99.90;;;;;;4980409;28;20212;-83
2021/07/04 06:41:52;;;;;;;6.60;6.00;;;21.70;99.90;;;;;;4981438;28;20221;-83
2021/07/04 06:44:18;;;;;;;7.77;6.80;;;21.80;99.90;;;;;;5011245;28;20201;-82
2021/07/04 06:46:43;;;;;;;7.43;6.73;;;21.80;99.90;;;;;;4978824;28;20181;-84
2021/07/04 06:49:09;;;;;;;7.70;6.50;;;21.70;99.90;;;;;;5011254;28;20204;-79
2021/07/04 06:51:35;;;;;;;7.70;6.90;;;21.80;99.90;;;;;;4994328;28;20216;-83
2021/07/04 06:54:00;;;;;;;7.67;6.30;;;21.80;99.90;;;;;;4990071;28;20189;-82
2021/07/04 06:56:26;;;;;;;7.90;6.80;;;21.90;99.90;;;;;;4995795;28;20253;-80
2021/07/04 06:58:52;;;;;;;7.70;6.43;;;21.70;99.90;;;;;;5009224;28;20894;-81
2021/07/04 07:01:18;;;;;;;7.07;6.30;;;21.70;99.90;;;;;;4988411;28;20759;-80
2021/07/04 07:03:44;;;;;;;7.30;6.60;;;21.70;99.90;;;;;;5007926;28;20281;-79
2021/07/04 07:06:09;;;;;;;7.27;6.57;;;21.70;99.90;;;;;;5008555;28;20440;-80
2021/07/04 07:08:35;;;;;;;8.73;7.20;;;21.80;99.90;;;;;;5007310;28;20200;-81
2021/07/04 07:11:01;;;;;;;7.63;6.33;;;21.90;99.90;;;;;;5009792;28;20201;-80
2021/07/04 07:13:27;;;;;;;7.37;6.60;;;22.00;99.90;;;;;;5011031;28;20441;-83
2021/07/04 07:15:52;;;;;;;7.10;6.50;;;22.00;99.90;;;;;;4978040;28;20220;-82
2021/07/04 07:18:18;;;;;;;8.30;6.57;;;22.00;99.90;;;;;;4997513;28;20197;-81
2021/07/04 07:20:44;;;;;;;6.73;6.13;;;22.10;99.90;;;;;;5008208;28;20209;-84
2021/07/04 07:23:10;;;;;;;7.07;6.47;;;22.10;99.90;;;;;;4978209;28;20190;-82
2021/07/04 07:25:35;;;;;;;7.13;6.47;;;22.20;99.90;;;;;;5009870;28;20188;-84
2021/07/04 07:28:01;;;;;;;6.93;6.17;;;22.40;99.90;;;;;;5010677;28;20197;-81
2021/07/04 07:30:27;;;;;;;6.73;6.03;;;22.40;99.90;;;;;;5011160;28;20291;-82
2021/07/04 07:32:53;;;;;;;7.47;6.60;;;22.30;99.90;;;;;;5009121;28;20208;-81
2021/07/04 07:35:18;;;;;;;7.70;7.00;;;22.30;99.90;;;;;;5008458;28;20685;-82
2021/07/04 07:37:45;;;;;;;7.50;6.80;;;22.50;99.90;;;;;;5009963;28;20666;-82
2021/07/04 07:40:11;;;;;;;7.30;6.60;;;22.60;99.90;;;;;;4992464;28;20215;-83
2021/07/04 07:42:37;;;;;;;8.33;6.63;;;22.60;99.90;;;;;;5010532;28;20440;-81
2021/07/04 07:45:04;;;;;;;7.17;6.50;;;22.70;99.90;;;;;;5009250;28;20490;-81
2021/07/04 07:47:30;;;;;;;7.07;6.37;;;22.80;99.90;;;;;;5009781;28;20213;-81
2021/07/04 07:49:59;;;;;;;7.53;6.67;;;22.70;99.90;;;;;;5012499;28;20530;-83
2021/07/04 07:52:25;;;;;;;6.60;5.90;;;22.70;99.90;;;;;;5010786;28;20913;-81
2021/07/04 07:54:51;;;;;;;7.37;6.67;;;22.70;99.90;;;;;;5013210;28;20477;-83
2021/07/04 07:57:16;;;;;;;9.93;6.90;;;22.80;99.90;;;;;;4995377;28;20641;-82
2021/07/04 07:59:42;;;;;;;8.10;6.80;;;22.80;99.90;;;;;;4994683;28;20670;-80
2021/07/04 08:02:09;;;;;;;7.70;6.10;;;22.70;99.90;;;;;;4965749;28;20193;-79
2021/07/04 08:04:35;;;;;;;7.47;6.67;;;22.80;99.90;;;;;;4995417;28;20474;-80
2021/07/04 08:07:03;;;;;;;7.20;6.17;;;22.80;99.90;;;;;;5000172;28;20436;-81
2021/07/04 08:09:29;;;;;;;7.37;6.33;;;22.80;99.90;;;;;;5018573;28;20518;-81
2021/07/04 08:11:55;;;;;;;6.70;6.10;;;23.00;99.90;;;;;;5018932;28;20443;-82
2021/07/04 08:14:21;;;;;;;7.83;7.10;;;23.20;99.90;;;;;;5001328;28;20193;-80
2021/07/04 08:16:47;;;;;;;8.60;7.80;;;23.40;99.90;;;;;;5000888;28;20439;-81
2021/07/04 08:19:13;;;;;;;7.20;6.53;;;23.50;99.90;;;;;;4998771;28;20981;-81
2021/07/04 08:21:39;;;;;;;9.07;7.20;;;23.30;99.90;;;;;;4998019;28;20197;-79
2021/07/04 08:24:05;;;;;;;8.10;6.73;;;23.30;99.90;;;;;;5013602;28;20471;-80
2021/07/04 08:26:31;;;;;;;7.67;5.90;;;23.40;99.90;;;;;;4997189;28;20439;-83
2021/07/04 08:28:57;;;;;;;8.00;7.20;;;23.50;99.90;;;;;;4989841;28;20466;-81
2021/07/04 08:31:25;;;;;;;7.47;6.73;;;23.60;99.90;;;;;;4993762;28;20197;-80
2021/07/04 08:33:51;;;;;;;7.43;6.73;;;23.60;99.90;;;;;;5009929;28;20428;-82
2021/07/04 08:36:17;;;;;;;7.93;7.10;;;23.70;99.90;;;;;;5010072;28;20478;-80
2021/07/04 08:38:42;;;;;;;6.93;6.33;;;23.60;99.90;;;;;;5010560;28;20451;-80
2021/07/04 08:41:08;;;;;;;7.77;7.00;;;23.70;99.90;;;;;;4990421;28;20311;-84
2021/07/04 08:43:36;;;;;;;7.10;6.13;;;23.60;99.90;;;;;;5009466;28;20255;-81
2021/07/04 08:46:04;;;;;;;7.00;6.20;;;23.80;99.90;;;;;;5010645;28;20217;-81
2021/07/04 08:48:33;;;;;;;6.80;6.20;;;23.70;99.90;;;;;;5007195;28;20443;-80
2021/07/04 08:50:58;;;;;;;6.80;6.20;;;23.80;99.90;;;;;;4989512;28;20448;-81
2021/07/04 08:53:24;;;;;;;6.40;5.80;;;23.80;99.90;;;;;;4988620;28;20443;-80
2021/07/04 08:55:50;;;;;;;10.40;9.47;;;23.80;99.90;;;;;;4996356;28;20191;-81
2021/07/04 08:58:24;;;;;;;6.90;6.13;;;23.70;99.90;;;;;;5015212;28;20431;-80
2021/07/04 09:01:09;;;;;;;7.10;6.03;;;23.80;99.90;;;;;;4980884;28;20551;-81
2021/07/04 09:03:35;;;;;;;8.73;7.97;;;23.90;99.90;;;;;;5014711;28;20470;-82
2021/07/04 09:06:01;;;;;;;8.33;7.43;;;24.00;99.90;;;;;;4996547;28;20440;-83
2021/07/04 09:08:27;;;;;;;7.70;6.80;;;24.10;99.90;;;;;;4999978;28;20196;-82
2021/07/04 09:11:18;;;;;;;7.10;6.40;;;24.10;99.90;;;;;;5014125;28;20444;-81
2021/07/04 09:13:46;;;;;;;6.53;5.93;;;24.00;99.90;;;;;;5014870;28;20192;-79
2021/07/04 09:16:15;;;;;;;6.93;6.23;;;23.80;99.90;;;;;;4992126;28;20431;-80
2021/07/04 09:18:41;;;;;;;7.93;7.20;;;23.90;99.90;;;;;;4985031;28;20455;-80
2021/07/04 09:21:21;;;;;;;7.10;6.50;;;23.80;99.90;;;;;;5008168;28;20463;-77
2021/07/04 09:23:47;;;;;;;7.00;6.30;;;23.80;99.90;;;;;;5005776;28;20251;-80
2021/07/04 09:26:50;;;;;;;7.83;7.03;;;23.80;99.90;;;;;;4998489;28;20475;-77
2021/07/04 09:29:16;;;;;;;6.37;5.87;;;23.70;99.90;;;;;;4987974;28;20221;-78
2021/07/04 09:31:43;;;;;;;6.90;6.30;;;23.80;99.90;;;;;;5012919;28;20463;-81
2021/07/04 09:34:11;;;;;;;6.93;6.33;;;23.70;99.90;;;;;;5060512;23;20591;-78
2021/07/04 09:36:39;;;;;;;7.50;6.40;;;23.80;99.90;;;;;;5018929;28;20868;-77
2021/07/04 09:39:22;;;;;;;6.60;6.00;;;23.80;99.90;;;;;;5018392;28;20427;-77
2021/07/04 09:42:11;;;;;;;8.00;6.83;;;23.90;99.90;;;;;;5016426;28;20420;-80
2021/07/04 09:44:38;;;;;;;6.90;5.90;;;23.90;99.90;;;;;;4963409;28;20468;-79
2021/07/04 09:47:22;;;;;;;6.97;6.30;;;23.90;99.90;;;;;;4987540;28;21213;-76
2021/07/04 09:49:48;;;;;;;7.17;6.20;;;23.80;99.90;;;;;;5001856;28;20432;-77
2021/07/04 09:52:20;;;;;;;6.80;6.20;;;23.70;99.90;;;;;;5004835;28;20533;-78
2021/07/04 09:55:04;;;;;;;6.43;5.83;;;23.70;99.90;;;;;;5017988;28;20455;-76
2021/07/04 09:58:01;;;;;;;7.37;6.53;;;23.70;99.90;;;;;;4990204;28;20493;-78
2021/07/04 10:00:35;;;;;;;7.20;6.50;;;23.50;99.90;;;;;;5007493;28;20459;-78
2021/07/04 10:03:14;;;;;;;8.20;6.60;;;23.50;99.90;;;;;;4985666;28;20542;-77
2021/07/04 10:05:44;;;;;;;9.13;6.70;;;23.50;99.90;;;;;;5008934;28;20555;-78
2021/07/04 10:08:26;;;;;;;7.33;6.70;;;23.50;99.90;;;;;;5005210;28;20508;-79
2021/07/04 10:11:09;;;;;;;6.40;5.90;;;23.40;99.90;;;;;;5004930;28;21372;-79
2021/07/04 10:13:39;;;;;;;6.40;5.83;;;23.40;99.90;;;;;;4994852;28;20549;-81
2021/07/04 10:16:11;;;;;;;6.30;5.70;;;23.40;99.90;;;;;;4992593;28;20440;-86
2021/07/04 10:18:38;;;;;;;9.20;6.20;;;23.20;99.90;;;;;;4994235;28;20443;-85
2021/07/04 10:21:06;;;;;;;7.50;6.80;;;23.20;99.90;;;;;;4992764;28;20448;-81
2021/07/04 10:23:32;;;;;;;6.23;5.63;;;23.10;99.90;;;;;;4985929;28;21055;-82
2021/07/04 10:26:02;;;;;;;8.70;6.40;;;22.90;99.90;;;;;;4992168;28;20948;-79
2021/07/04 10:28:34;;;;;;;7.40;6.70;;;22.90;99.90;;;;;;4996753;28;20444;-80
2021/07/04 10:31:09;;;;;;;7.27;6.67;;;22.90;99.90;;;;;;5004410;28;20447;-82
2021/07/04 10:33:35;;;;;;;7.60;6.30;;;22.90;99.90;;;;;;4997610;28;20451;-81
2021/07/04 10:36:05;;;;;;;8.13;7.43;;;22.90;99.90;;;;;;4985572;28;20446;-80
2021/07/04 10:38:58;;;;;;;6.30;5.80;;;22.90;99.90;;;;;;5003729;28;20428;-81
2021/07/04 10:41:34;;;;;;;8.00;7.27;;;23.00;99.90;;;;;;4999893;28;20452;-83
2021/07/04 10:44:12;;;;;;;6.80;6.20;;;23.00;99.90;;;;;;4967643;28;20471;-80
2021/07/04 10:46:44;;;;;;;7.00;6.30;;;23.00;99.90;;;;;;5004086;28;20443;-81
2021/07/04 10:49:15;;;;;;;9.03;8.13;;;23.00;99.90;;;;;;5003058;28;20420;-80
2021/07/04 10:52:06;;;;;;;7.30;6.70;;;22.90;99.90;;;;;;4968359;28;20440;-84
2021/07/04 10:57:10;;;;;;;9.00;8.10;;;22.70;99.90;;;;;;5003295;28;20466;-82
2021/07/04 11:00:01;;;;;;;7.33;5.40;;;22.50;99.90;;;;;;4989784;28;20436;-84
2021/07/04 11:02:54;;;;;;;4.30;3.90;;;22.30;99.90;;;;;;5002497;28;20550;-84
2021/07/04 11:05:41;;;;;;;4.87;4.47;;;22.00;99.90;;;;;;4986149;28;20885;-86
2021/07/04 11:08:18;;;;;;;4.47;4.07;;;22.10;99.90;;;;;;4987575;28;20563;-82
2021/07/04 11:10:50;;;;;;;4.50;4.10;;;21.70;99.90;;;;;;5001900;28;20431;-83
2021/07/04 11:13:15;;;;;;;4.53;4.10;;;22.00;99.90;;;;;;5004593;28;20499;-81
2021/07/04 11:15:53;;;;;;;4.70;3.80;;;21.90;99.90;;;;;;5032739;23;20544;-61
2021/07/04 11:18:22;;;;;;;9.60;4.93;;;21.70;99.90;;;;;;5006420;23;20218;-64
2021/07/04 11:21:07;;;;;;;7.97;5.43;;;21.30;99.90;;;;;;4976029;23;20502;-65
2021/07/04 11:23:44;;;;;;;7.90;4.23;;;21.00;99.90;;;;;;4929178;29;20530;-61
2021/07/04 11:26:15;;;;;;;3.93;3.37;;;20.70;99.90;;;;;;4934129;29;20435;-64
2021/07/04 11:28:47;;;;;;;6.27;4.20;;;20.50;99.90;;;;;;4932435;29;20923;-60
2021/07/04 11:31:21;;;;;;;5.30;4.77;;;20.60;99.90;;;;;;4934546;29;20427;-63
2021/07/04 11:36:30;;;;;;;5.43;4.30;;;20.70;99.90;;;;;;5077913;22;20617;-67
2021/07/04 11:39:14;;;;;;;4.80;4.40;;;20.90;99.90;;;;;;4976829;28;20437;-67
2021/07/04 11:41:58;;;;;;;7.00;4.80;;;20.80;99.90;;;;;;5123291;22;20500;-67
2021/07/04 11:44:27;;;;;;;5.70;5.10;;;20.90;99.90;;;;;;4950021;28;20496;-61
2021/07/04 11:46:54;;;;;;;5.57;5.07;;;21.20;99.90;;;;;;4949470;28;20492;-65
2021/07/04 11:49:42;;;;;;;5.17;4.63;;;21.00;99.90;;;;;;4945535;28;20438;-60
2021/07/04 11:52:50;;;;;;;5.10;4.60;;;21.10;99.90;;;;;;5043149;23;20503;-65
2021/07/04 11:57:54;;;;;;;5.50;4.80;;;20.90;99.90;;;;;;4994756;28;20472;-61
2021/07/04 12:00:19;;;;;;;7.43;4.87;;;20.90;99.90;;;;;;4990224;28;20442;-65
2021/07/04 12:02:52;;;;;;;5.23;4.73;;;21.10;99.90;;;;;;5001876;28;20812;-60
2021/07/04 12:05:23;;;;;;;4.77;4.27;;;21.70;99.90;;;;;;4988287;28;20216;-60
2021/07/04 12:08:27;;;;;;;5.63;4.77;;;21.50;99.90;;;;;;5135330;23;20874;-63
2021/07/04 12:11:43;;;;;;;5.07;4.60;;;22.10;99.90;;;;;;4984784;28;20432;-67
2021/07/04 12:17:50;;;;;;;6.03;4.50;;;22.10;99.90;;;;;;4291433;22;20487;-63
2021/07/04 12:20:37;;;;;;;7.37;4.17;;;22.80;99.90;;;;;;4986301;28;20496;-68
2021/07/04 12:23:25;;;;;;;6.97;4.20;;;23.20;99.90;;;;;;5052054;23;20522;-61
2021/07/04 12:28:30;;;;;;;4.57;4.13;;;23.80;99.90;;;;;;4749656;26;20466;-63
2021/07/04 12:30:56;;;;;;;6.63;5.00;;;23.50;99.90;;;;;;4999529;28;21006;-64
2021/07/04 12:34:07;;;;;;;4.00;3.60;;;23.40;99.90;;;;;;4998758;28;20981;-63
2021/07/04 12:36:33;;;;;;;4.40;3.77;;;23.90;99.90;;;;;;5045871;23;20543;-66
2021/07/04 12:39:08;;;;;;;6.10;4.50;;;23.30;99.90;;;;;;5008244;28;20443;-68
2021/07/04 12:45:25;;;;;;;4.50;4.10;;;23.80;99.90;;;;;;5138886;23;20588;-62
2021/07/04 12:48:28;;;;;;;3.73;3.40;;;23.60;99.90;;;;;;4993892;28;20521;-67
2021/07/04 12:56:01;;;;;;;4.60;3.80;;;24.70;99.90;;;;;;4984614;28;20477;-68
2021/07/04 12:59:25;;;;;;;3.63;3.33;;;24.80;99.90;;;;;;4994484;23;20501;-67
2021/07/04 13:04:51;;;;;;;4.17;3.80;;;24.70;99.90;;;;;;4823158;26;20980;-67
2021/07/04 13:07:43;;;;;;;5.93;3.57;;;24.90;99.90;;;;;;5003862;28;20429;-62
2021/07/04 13:10:51;;;;;;;4.47;4.07;;;25.60;99.90;;;;;;4990139;28;20964;-66
2021/07/04 13:13:17;;;;;;;5.33;4.07;;;27.10;99.90;;;;;;4989218;28;20452;-67
2021/07/04 13:16:27;;;;;;;4.00;3.60;;;28.10;99.90;;;;;;4987263;28;20807;-60
2021/07/04 13:20:01;;;;;;;4.10;3.80;;;29.10;99.90;;;;;;4976045;28;20997;-62
2021/07/04 13:23:10;;;;;;;;;;;;;;;;;;;;;
2021/07/04 13:25:53;;;;;;;6.07;4.97;;;29.30;99.90;;;;;;5035796;22;20476;-63
2021/07/04 13:28:54;;;;;;;4.70;4.20;;;29.20;99.90;;;;;;4986473;28;20467;-67